Ulladulla, Australia
Current Conditions -  °F | °C
As of 3:00 PM on Wednesday 22 Oct 2014 (Local Time) from YSNW Reporting Station
Few Clouds Few Clouds  
Wind Chill: 73°   Ceiling: Unl
Heat Index: 73°   Visibility: 6mi
Dew Point: 54°   Wind: 15mph
Humidity: 50%   Direction: 60°ENE
Pressure: 30.09"   Gusts: NA
Location:  35.36°S, 150.47°E
Report Text: YSNW 220400Z 06013KT 9999 FEW045 23/12 Q1019 NOSIG
Loading
Personal Weather Stations






























Interactive Weather Map
Tropical Storm Tracking
New forecast layout! Learn more

10-Day Weather Forecast

Advertisements
Track Severe Weather on mobile